createdAt,value
2023-10-22T00:04:47.416Z,8.43
2023-10-22T00:14:52.479Z,7.01
2023-10-22T00:24:52.486Z,8.22
2023-10-22T00:34:52.262Z,9.41
2023-10-22T00:44:55.129Z,8.19
2023-10-22T00:54:56.203Z,6.72
2023-10-22T01:04:58.976Z,9.94
2023-10-22T01:15:01.793Z,10.16
2023-10-22T01:25:01.642Z,10.18
2023-10-22T01:35:01.706Z,8.92
2023-10-22T01:45:01.940Z,9.68
2023-10-22T01:55:02.104Z,7.5
2023-10-22T02:05:02.333Z,9.4
2023-10-22T02:15:02.344Z,9.99
2023-10-22T02:25:05.173Z,5.38
2023-10-22T02:35:05.173Z,7.66
2023-10-22T02:45:15.195Z,11.54
2023-10-22T02:55:25.044Z,10.9
2023-10-22T03:05:26.097Z,12.72
2023-10-22T03:15:26.184Z,7.82
2023-10-22T03:35:28.553Z,7.78
2023-10-22T03:45:28.497Z,16.5
2023-10-22T04:05:30.949Z,11.01
2023-10-22T04:15:31.241Z,17.86
2023-10-22T04:25:31.385Z,20.3
2023-10-22T04:45:33.918Z,14.37
2023-10-22T04:55:34.101Z,10.82
2023-10-22T05:15:36.426Z,7.93
2023-10-22T05:35:38.959Z,11.67
2023-10-22T05:45:39.185Z,9.93
2023-10-22T05:55:39.824Z,8.15
2023-10-22T06:05:39.901Z,8.87
2023-10-22T06:15:42.190Z,11.85
2023-10-22T06:25:48.528Z,12.51
2023-10-22T06:36:05.241Z,14.43
2023-10-22T06:56:17.000Z,11.02
2023-10-22T07:06:17.639Z,8.84
2023-10-22T07:16:20.848Z,10.32
2023-10-22T07:26:23.628Z,12.43
2023-10-22T07:36:25.631Z,6.62
2023-10-22T07:46:27.932Z,7.43
2023-10-22T07:56:28.856Z,7.58
2023-10-22T08:06:38.749Z,7.94
2023-10-22T08:16:48.868Z,11.37
2023-10-22T08:26:49.921Z,6.15
2023-10-22T08:36:51.465Z,6.86
2023-10-22T08:46:53.396Z,6.2
2023-10-22T08:56:53.423Z,9.34
2023-10-22T09:06:55.439Z,8.96
2023-10-22T09:16:55.381Z,10.36
2023-10-22T09:27:07.492Z,12.85
2023-10-22T09:37:07.248Z,11.75
2023-10-22T09:47:17.857Z,9.54
2023-10-22T09:57:17.880Z,12.94
2023-10-22T10:07:28.794Z,9.89
2023-10-22T10:17:31.417Z,9.34
2023-10-22T10:27:31.304Z,10.22
2023-10-22T10:37:41.348Z,10.84
2023-10-22T10:47:41.335Z,10.67
2023-10-22T10:57:41.238Z,12.13
2023-10-22T11:07:51.269Z,10.07
2023-10-22T11:18:01.187Z,9.29
2023-10-22T11:28:01.132Z,8.03
2023-10-22T11:38:11.031Z,10.81
2023-10-22T11:48:20.819Z,10.44
2023-10-22T11:58:30.643Z,7.55
2023-10-22T12:08:40.436Z,6.99
2023-10-22T12:18:50.285Z,7.1
2023-10-22T12:29:00.084Z,7.66
2023-10-22T12:39:09.806Z,4.45
2023-10-22T12:49:20.938Z,5.34
2023-10-22T12:59:20.756Z,7.14
2023-10-22T13:09:30.941Z,5.88
2023-10-22T13:19:32.341Z,7.55
2023-10-22T13:29:32.218Z,7.39
2023-10-22T13:39:42.046Z,6.64
2023-10-22T13:49:51.921Z,6.52
2023-10-22T14:00:01.751Z,6.37
2023-10-22T14:10:12.584Z,4.82
2023-10-22T14:20:12.924Z,6.88
2023-10-22T14:30:13.060Z,5.89
2023-10-22T14:40:13.060Z,7.79
2023-10-22T14:50:13.472Z,4.18
2023-10-22T15:00:24.061Z,6.43
2023-10-22T15:10:24.386Z,5.03
2023-10-22T15:20:24.607Z,3.96
2023-10-22T15:30:24.564Z,4.4
2023-10-22T15:40:35.595Z,5.69
2023-10-22T15:50:35.699Z,4.98
2023-10-22T16:00:45.944Z,4.83
2023-10-22T16:10:46.208Z,4.38
2023-10-22T16:20:46.109Z,4.27
2023-10-22T16:30:55.830Z,3.77
2023-10-22T16:41:06.174Z,4.53
2023-10-22T16:51:06.267Z,4.46
2023-10-22T17:01:06.161Z,3.89
2023-10-22T17:11:18.340Z,4.35
2023-10-22T17:21:22.163Z,3.54
2023-10-22T17:31:22.358Z,5.79
2023-10-22T17:41:22.747Z,4.06
2023-10-22T17:51:22.842Z,4.6
2023-10-22T18:01:22.985Z,6.28
2023-10-22T18:11:23.417Z,5.87
2023-10-22T18:21:23.925Z,5.14
2023-10-22T18:31:26.297Z,3.82
2023-10-22T18:41:27.560Z,5.02
2023-10-22T18:51:28.199Z,6.59
2023-10-22T19:01:30.347Z,3.93
2023-10-22T19:11:32.695Z,5.36
2023-10-22T19:21:36.168Z,4.88
2023-10-22T19:31:38.730Z,4.76
2023-10-22T19:41:46.122Z,3.55
2023-10-22T19:51:50.170Z,3.97
2023-10-22T20:02:03.230Z,2.23
2023-10-22T20:11:58.749Z,3.66
2023-10-22T20:22:01.865Z,6.23
2023-10-22T20:32:04.674Z,3.51
2023-10-22T20:42:06.830Z,3.92
2023-10-22T20:52:07.958Z,3.07
2023-10-22T21:02:09.681Z,2.23
2023-10-22T21:12:09.804Z,3.53
2023-10-22T21:22:09.825Z,5.26
2023-10-22T21:32:09.830Z,3.69
2023-10-22T21:42:20.037Z,3.8
2023-10-22T21:52:20.170Z,4.73
2023-10-22T22:02:20.217Z,3.86
2023-10-22T22:12:20.206Z,3.91
2023-10-22T22:22:20.190Z,5.47
2023-10-22T22:32:32.334Z,3.36
2023-10-22T22:42:32.380Z,7.06
2023-10-22T22:52:43.389Z,7.2
2023-10-22T23:02:43.297Z,5.8
2023-10-22T23:12:53.492Z,4.4
2023-10-22T23:22:53.399Z,3.33
2023-10-22T23:33:03.333Z,5.13
2023-10-22T23:43:15.564Z,6.34
2023-10-22T23:53:16.544Z,3.65
